sensor_id;sensor_type;location;lat;lon;timestamp;pressure;altitude;pressure_sealevel;temperature;humidity
26719;BME280;14326;50.794;6.060;2023-05-20T00:00:06;100241.47;;;11.34;89.46
26719;BME280;14326;50.794;6.060;2023-05-20T00:02:32;100228.19;;;11.36;89.60
26719;BME280;14326;50.794;6.060;2023-05-20T00:05:10;100239.53;;;11.24;89.14
26719;BME280;14326;50.794;6.060;2023-05-20T00:08:04;100246.53;;;11.19;89.82
26719;BME280;14326;50.794;6.060;2023-05-20T00:10:33;100237.47;;;11.08;90.57
26719;BME280;14326;50.794;6.060;2023-05-20T00:13:11;100228.69;;;11.12;91.07
26719;BME280;14326;50.794;6.060;2023-05-20T00:15:39;100233.91;;;11.06;91.15
26719;BME280;14326;50.794;6.060;2023-05-20T00:18:13;100238.94;;;10.91;90.71
26719;BME280;14326;50.794;6.060;2023-05-20T00:20:41;100230.97;;;10.89;91.41
26719;BME280;14326;50.794;6.060;2023-05-20T00:23:08;100233.47;;;10.82;91.27
26719;BME280;14326;50.794;6.060;2023-05-20T00:25:35;100237.97;;;10.86;91.94
26719;BME280;14326;50.794;6.060;2023-05-20T00:28:02;100236.28;;;10.89;92.04
26719;BME280;14326;50.794;6.060;2023-05-20T00:30:28;100230.09;;;10.92;91.97
26719;BME280;14326;50.794;6.060;2023-05-20T00:32:59;100236.25;;;10.88;92.15
26719;BME280;14326;50.794;6.060;2023-05-20T00:35:26;100238.84;;;10.83;92.28
26719;BME280;14326;50.794;6.060;2023-05-20T00:37:52;100237.00;;;10.81;91.93
26719;BME280;14326;50.794;6.060;2023-05-20T00:40:19;100225.34;;;10.74;91.46
26719;BME280;14326;50.794;6.060;2023-05-20T00:42:48;100227.97;;;10.71;92.62
26719;BME280;14326;50.794;6.060;2023-05-20T00:45:15;100231.47;;;10.68;92.74
26719;BME280;14326;50.794;6.060;2023-05-20T00:47:41;100234.22;;;10.75;92.66
26719;BME280;14326;50.794;6.060;2023-05-20T00:50:10;100226.22;;;10.72;92.75
26719;BME280;14326;50.794;6.060;2023-05-20T00:52:37;100234.88;;;10.60;93.45
26719;BME280;14326;50.794;6.060;2023-05-20T00:55:06;100232.09;;;10.54;93.73
26719;BME280;14326;50.794;6.060;2023-05-20T00:57:33;100226.59;;;10.46;93.19
26719;BME280;14326;50.794;6.060;2023-05-20T00:59:59;100218.59;;;10.45;93.44
26719;BME280;14326;50.794;6.060;2023-05-20T01:02:26;100221.22;;;10.43;93.79
26719;BME280;14326;50.794;6.060;2023-05-20T01:04:53;100222.09;;;10.42;94.63
26719;BME280;14326;50.794;6.060;2023-05-20T01:07:48;100219.50;;;10.45;94.65
26719;BME280;14326;50.794;6.060;2023-05-20T01:10:26;100223.81;;;10.40;94.53
26719;BME280;14326;50.794;6.060;2023-05-20T01:12:57;100224.59;;;10.35;94.32
26719;BME280;14326;50.794;6.060;2023-05-20T01:15:37;100224.47;;;10.29;94.25
26719;BME280;14326;50.794;6.060;2023-05-20T01:18:13;100223.50;;;10.25;93.82
26719;BME280;14326;50.794;6.060;2023-05-20T01:20:48;100230.50;;;10.20;95.32
26719;BME280;14326;50.794;6.060;2023-05-20T01:23:33;100221.66;;;10.21;94.32
26719;BME280;14326;50.794;6.060;2023-05-20T01:26:17;100233.28;;;10.26;94.50
26719;BME280;14326;50.794;6.060;2023-05-20T01:29:05;100227.97;;;10.24;93.64
26719;BME280;14326;50.794;6.060;2023-05-20T01:31:35;100227.09;;;10.27;93.68
26719;BME280;14326;50.794;6.060;2023-05-20T01:34:14;100225.31;;;10.26;94.02
26719;BME280;14326;50.794;6.060;2023-05-20T01:36:51;100222.59;;;10.23;93.90
26719;BME280;14326;50.794;6.060;2023-05-20T01:39:21;100209.13;;;10.15;95.64
26719;BME280;14326;50.794;6.060;2023-05-20T01:41:49;100205.44;;;10.09;94.95
26719;BME280;14326;50.794;6.060;2023-05-20T01:44:33;100203.66;;;10.09;95.39
26719;BME280;14326;50.794;6.060;2023-05-20T01:47:14;100205.31;;;10.03;95.09
26719;BME280;14326;50.794;6.060;2023-05-20T01:49:55;100207.84;;;9.97;95.95
26719;BME280;14326;50.794;6.060;2023-05-20T01:58:56;100203.16;;;9.83;95.31
26719;BME280;14326;50.794;6.060;2023-05-20T02:01:34;100195.13;;;9.82;95.75
26719;BME280;14326;50.794;6.060;2023-05-20T02:04:01;100199.41;;;9.75;95.67
26719;BME280;14326;50.794;6.060;2023-05-20T02:06:28;100194.16;;;9.78;95.54
26719;BME280;14326;50.794;6.060;2023-05-20T02:09:02;100198.38;;;9.69;95.41
26719;BME280;14326;50.794;6.060;2023-05-20T02:11:43;100193.13;;;9.70;96.64
26719;BME280;14326;50.794;6.060;2023-05-20T02:14:20;100196.53;;;9.65;95.82
26719;BME280;14326;50.794;6.060;2023-05-20T02:17:13;100195.53;;;9.60;96.13
26719;BME280;14326;50.794;6.060;2023-05-20T02:22:47;100196.31;;;9.54;96.22
26719;BME280;14326;50.794;6.060;2023-05-20T02:28:10;100196.44;;;9.62;96.66
26719;BME280;14326;50.794;6.060;2023-05-20T02:30:52;100197.16;;;9.53;97.16
26719;BME280;14326;50.794;6.060;2023-05-20T02:33:21;100194.22;;;9.42;96.18
26719;BME280;14326;50.794;6.060;2023-05-20T02:35:48;100196.88;;;9.41;96.53
26719;BME280;14326;50.794;6.060;2023-05-20T02:38:14;100193.22;;;9.36;96.88
26719;BME280;14326;50.794;6.060;2023-05-20T02:40:43;100196.75;;;9.35;97.61
26719;BME280;14326;50.794;6.060;2023-05-20T02:43:09;100189.53;;;9.31;97.69
26719;BME280;14326;50.794;6.060;2023-05-20T02:45:58;100195.84;;;9.34;98.02
26719;BME280;14326;50.794;6.060;2023-05-20T02:48:39;100188.81;;;9.36;98.12
26719;BME280;14326;50.794;6.060;2023-05-20T02:51:14;100192.94;;;9.24;98.43
26719;BME280;14326;50.794;6.060;2023-05-20T02:53:43;100191.03;;;9.18;98.43
26719;BME280;14326;50.794;6.060;2023-05-20T02:56:09;100185.69;;;9.17;98.40
26719;BME280;14326;50.794;6.060;2023-05-20T02:58:37;100185.59;;;9.14;99.11
26719;BME280;14326;50.794;6.060;2023-05-20T03:01:24;100184.88;;;9.21;98.68
26719;BME280;14326;50.794;6.060;2023-05-20T03:04:08;100187.34;;;9.12;98.88
26719;BME280;14326;50.794;6.060;2023-05-20T03:06:40;100184.59;;;9.07;98.80
26719;BME280;14326;50.794;6.060;2023-05-20T03:09:25;100178.44;;;9.10;98.26
26719;BME280;14326;50.794;6.060;2023-05-20T03:11:56;100186.19;;;9.00;98.82
26719;BME280;14326;50.794;6.060;2023-05-20T03:14:33;100178.97;;;8.96;98.25
26719;BME280;14326;50.794;6.060;2023-05-20T03:17:11;100180.69;;;8.93;99.00
26719;BME280;14326;50.794;6.060;2023-05-20T03:19:58;100183.22;;;8.88;99.28
26719;BME280;14326;50.794;6.060;2023-05-20T03:25:53;100181.47;;;8.89;98.97
26719;BME280;14326;50.794;6.060;2023-05-20T03:28:34;100180.44;;;8.84;98.83
26719;BME280;14326;50.794;6.060;2023-05-20T03:31:19;100180.41;;;8.82;99.67
26719;BME280;14326;50.794;6.060;2023-05-20T03:34:22;100170.50;;;8.75;99.57
26719;BME280;14326;50.794;6.060;2023-05-20T03:37:32;100177.81;;;8.85;98.90
26719;BME280;14326;50.794;6.060;2023-05-20T03:40:40;100171.00;;;8.95;99.06
26719;BME280;14326;50.794;6.060;2023-05-20T03:46:23;100178.78;;;8.87;98.53
26719;BME280;14326;50.794;6.060;2023-05-20T03:48:49;100174.97;;;8.78;98.95
26719;BME280;14326;50.794;6.060;2023-05-20T03:51:43;100175.78;;;8.74;99.68
26719;BME280;14326;50.794;6.060;2023-05-20T03:54:13;100172.97;;;8.68;99.82
26719;BME280;14326;50.794;6.060;2023-05-20T03:56:53;100172.22;;;8.73;99.82
26719;BME280;14326;50.794;6.060;2023-05-20T03:59:44;100176.66;;;8.74;99.85
26719;BME280;14326;50.794;6.060;2023-05-20T04:02:31;100171.22;;;8.68;99.66
26719;BME280;14326;50.794;6.060;2023-05-20T04:05:18;100170.09;;;8.60;99.78
26719;BME280;14326;50.794;6.060;2023-05-20T04:07:46;100170.09;;;8.60;99.17
26719;BME280;14326;50.794;6.060;2023-05-20T04:10:17;100174.50;;;8.58;99.10
26719;BME280;14326;50.794;6.060;2023-05-20T04:12:53;100171.00;;;8.59;99.64
26719;BME280;14326;50.794;6.060;2023-05-20T04:15:20;100178.00;;;8.57;99.81
26719;BME280;14326;50.794;6.060;2023-05-20T04:18:23;100173.53;;;8.56;100.00
26719;BME280;14326;50.794;6.060;2023-05-20T04:20:43;100177.03;;;8.55;100.00
26719;BME280;14326;50.794;6.060;2023-05-20T04:26:52;100180.09;;;8.70;100.00
26719;BME280;14326;50.794;6.060;2023-05-20T04:29:35;100167.75;;;8.72;100.00
26719;BME280;14326;50.794;6.060;2023-05-20T04:32:30;100174.84;;;8.72;100.00
26719;BME280;14326;50.794;6.060;2023-05-20T04:37:58;100175.88;;;8.78;100.00
26719;BME280;14326;50.794;6.060;2023-05-20T04:40:35;100173.38;;;8.83;100.00
26719;BME280;14326;50.794;6.060;2023-05-20T04:43:14;100170.72;;;8.84;100.00
26719;BME280;14326;50.794;6.060;2023-05-20T04:45:46;100172.56;;;8.87;100.00
26719;BME280;14326;50.794;6.060;2023-05-20T04:48:17;100173.56;;;8.92;100.00
26719;BME280;14326;50.794;6.060;2023-05-20T04:50:52;100175.47;;;8.97;100.00
26719;BME280;14326;50.794;6.060;2023-05-20T04:53:19;100173.88;;;9.04;100.00
26719;BME280;14326;50.794;6.060;2023-05-20T04:56:04;100173.22;;;9.13;100.00
26719;BME280;14326;50.794;6.060;2023-05-20T04:59:13;100175.25;;;9.24;100.00
26719;BME280;14326;50.794;6.060;2023-05-20T05:01:46;100164.94;;;9.38;100.00
26719;BME280;14326;50.794;6.060;2023-05-20T05:04:26;100162.56;;;9.50;100.00
26719;BME280;14326;50.794;6.060;2023-05-20T05:07:16;100166.31;;;9.60;100.00
26719;BME280;14326;50.794;6.060;2023-05-20T05:09:52;100167.44;;;9.71;100.00
26719;BME280;14326;50.794;6.060;2023-05-20T05:12:19;100159.75;;;9.83;100.00
26719;BME280;14326;50.794;6.060;2023-05-20T05:15:00;100158.31;;;10.00;100.00
26719;BME280;14326;50.794;6.060;2023-05-20T05:17:37;100163.13;;;10.18;100.00
26719;BME280;14326;50.794;6.060;2023-05-20T05:20:26;100147.53;;;10.36;98.37
26719;BME280;14326;50.794;6.060;2023-05-20T05:23:02;100142.50;;;10.54;96.50
26719;BME280;14326;50.794;6.060;2023-05-20T05:25:54;100142.88;;;10.74;95.77
26719;BME280;14326;50.794;6.060;2023-05-20T05:31:55;100139.88;;;11.08;93.09
26719;BME280;14326;50.794;6.060;2023-05-20T05:37:25;100133.28;;;11.44;91.90
26719;BME280;14326;50.794;6.060;2023-05-20T05:39:52;100140.59;;;11.59;90.87
26719;BME280;14326;50.794;6.060;2023-05-20T05:42:18;100132.72;;;11.68;90.09
26719;BME280;14326;50.794;6.060;2023-05-20T05:44:51;100138.25;;;11.80;89.44
26719;BME280;14326;50.794;6.060;2023-05-20T05:47:20;100139.31;;;11.94;89.57
26719;BME280;14326;50.794;6.060;2023-05-20T05:49:47;100135.03;;;12.10;89.06
26719;BME280;14326;50.794;6.060;2023-05-20T05:52:23;100126.38;;;12.29;87.05
26719;BME280;14326;50.794;6.060;2023-05-20T05:54:59;100123.84;;;12.41;86.15
26719;BME280;14326;50.794;6.060;2023-05-20T05:57:25;100117.72;;;12.53;87.02
26719;BME280;14326;50.794;6.060;2023-05-20T05:59:52;100119.63;;;12.66;86.56
26719;BME280;14326;50.794;6.060;2023-05-20T06:02:20;100125.06;;;12.80;85.76
26719;BME280;14326;50.794;6.060;2023-05-20T06:05:00;100121.59;;;12.90;83.86
26719;BME280;14326;50.794;6.060;2023-05-20T06:07:40;100117.25;;;13.04;83.05
26719;BME280;14326;50.794;6.060;2023-05-20T06:10:17;100121.00;;;13.29;82.39
26719;BME280;14326;50.794;6.060;2023-05-20T06:12:49;100128.19;;;13.39;81.91
26719;BME280;14326;50.794;6.060;2023-05-20T06:15:16;100128.25;;;13.51;81.09
26719;BME280;14326;50.794;6.060;2023-05-20T06:17:47;100132.81;;;13.66;80.04
26719;BME280;14326;50.794;6.060;2023-05-20T06:23:30;100117.75;;;13.97;80.27
26719;BME280;14326;50.794;6.060;2023-05-20T06:26:01;100123.13;;;14.03;78.17
26719;BME280;14326;50.794;6.060;2023-05-20T06:28:41;100121.44;;;14.24;78.96
26719;BME280;14326;50.794;6.060;2023-05-20T06:31:38;100118.78;;;14.37;77.53
26719;BME280;14326;50.794;6.060;2023-05-20T06:34:17;100123.25;;;14.36;76.24
26719;BME280;14326;50.794;6.060;2023-05-20T06:43:08;100107.22;;;14.47;77.98
26719;BME280;14326;50.794;6.060;2023-05-20T06:46:00;100106.38;;;14.72;74.89
26719;BME280;14326;50.794;6.060;2023-05-20T06:48:26;100106.34;;;14.89;75.22
26719;BME280;14326;50.794;6.060;2023-05-20T06:53:45;100101.88;;;15.20;72.83
26719;BME280;14326;50.794;6.060;2023-05-20T06:56:29;100097.34;;;15.37;72.67
26719;BME280;14326;50.794;6.060;2023-05-20T06:59:08;100100.91;;;15.34;72.77
26719;BME280;14326;50.794;6.060;2023-05-20T07:01:57;100097.38;;;15.22;73.05
26719;BME280;14326;50.794;6.060;2023-05-20T07:04:26;100109.00;;;15.19;74.83
26719;BME280;14326;50.794;6.060;2023-05-20T07:06:54;100100.06;;;15.14;72.61
26719;BME280;14326;50.794;6.060;2023-05-20T07:09:28;100096.50;;;15.09;72.24
26719;BME280;14326;50.794;6.060;2023-05-20T07:11:55;100097.38;;;15.15;73.28
26719;BME280;14326;50.794;6.060;2023-05-20T07:14:21;100100.06;;;15.08;73.25
26719;BME280;14326;50.794;6.060;2023-05-20T07:16:52;100091.16;;;15.07;73.50
26719;BME280;14326;50.794;6.060;2023-05-20T07:19:19;100085.75;;;15.29;72.14
26719;BME280;14326;50.794;6.060;2023-05-20T07:21:45;100093.75;;;15.39;71.22
26719;BME280;14326;50.794;6.060;2023-05-20T07:24:27;100084.78;;;15.43;73.14
26719;BME280;14326;50.794;6.060;2023-05-20T07:27:03;100077.56;;;15.74;72.43
26719;BME280;14326;50.794;6.060;2023-05-20T07:29:30;100081.94;;;15.96;70.44
26719;BME280;14326;50.794;6.060;2023-05-20T07:31:56;100067.53;;;16.08;68.80
26719;BME280;14326;50.794;6.060;2023-05-20T07:34:23;100066.63;;;16.20;68.31
26719;BME280;14326;50.794;6.060;2023-05-20T07:37:07;100065.59;;;16.33;69.11
26719;BME280;14326;50.794;6.060;2023-05-20T07:39:38;100065.53;;;16.44;68.38
26719;BME280;14326;50.794;6.060;2023-05-20T07:42:20;100069.06;;;16.52;68.39
26719;BME280;14326;50.794;6.060;2023-05-20T07:44:47;100070.59;;;16.86;66.39
26719;BME280;14326;50.794;6.060;2023-05-20T07:47:13;100064.97;;;17.10;65.50
26719;BME280;14326;50.794;6.060;2023-05-20T07:50:03;100065.03;;;17.07;64.63
26719;BME280;14326;50.794;6.060;2023-05-20T07:52:36;100064.03;;;17.16;65.01
26719;BME280;14326;50.794;6.060;2023-05-20T07:55:16;100072.19;;;17.05;65.50
26719;BME280;14326;50.794;6.060;2023-05-20T07:58:07;100053.31;;;17.11;62.94
26719;BME280;14326;50.794;6.060;2023-05-20T08:00:47;100058.81;;;16.98;63.43
26719;BME280;14326;50.794;6.060;2023-05-20T08:03:13;100055.47;;;16.74;65.33
26719;BME280;14326;50.794;6.060;2023-05-20T08:05:40;100054.22;;;17.10;63.89
26719;BME280;14326;50.794;6.060;2023-05-20T08:08:07;100053.19;;;17.24;64.26
26719;BME280;14326;50.794;6.060;2023-05-20T08:10:36;100050.44;;;17.31;63.04
26719;BME280;14326;50.794;6.060;2023-05-20T08:13:02;100050.19;;;17.51;63.97
26719;BME280;14326;50.794;6.060;2023-05-20T08:15:53;100055.34;;;17.72;62.12
26719;BME280;14326;50.794;6.060;2023-05-20T08:18:39;100051.91;;;17.56;61.72
26719;BME280;14326;50.794;6.060;2023-05-20T08:21:29;100041.19;;;17.55;62.52
26719;BME280;14326;50.794;6.060;2023-05-20T08:24:06;100036.47;;;17.74;61.50
26719;BME280;14326;50.794;6.060;2023-05-20T08:26:34;100030.59;;;18.10;59.17
26719;BME280;14326;50.794;6.060;2023-05-20T08:29:16;100039.19;;;18.33;57.64
26719;BME280;14326;50.794;6.060;2023-05-20T08:31:43;100037.03;;;18.58;57.46
26719;BME280;14326;50.794;6.060;2023-05-20T08:34:10;100039.53;;;18.70;57.09
26719;BME280;14326;50.794;6.060;2023-05-20T08:36:36;100039.03;;;18.98;57.62
26719;BME280;14326;50.794;6.060;2023-05-20T08:39:04;100041.41;;;19.14;55.58
26719;BME280;14326;50.794;6.060;2023-05-20T08:41:30;100042.44;;;18.58;57.07
26719;BME280;14326;50.794;6.060;2023-05-20T08:44:00;100045.34;;;17.83;60.35
26719;BME280;14326;50.794;6.060;2023-05-20T08:46:27;100045.63;;;17.61;61.74
26719;BME280;14326;50.794;6.060;2023-05-20T08:48:53;100033.97;;;17.57;61.53
26719;BME280;14326;50.794;6.060;2023-05-20T08:51:20;100043.97;;;17.44;62.63
26719;BME280;14326;50.794;6.060;2023-05-20T08:53:47;100045.75;;;17.45;63.22
26719;BME280;14326;50.794;6.060;2023-05-20T08:56:15;100034.66;;;17.74;62.23
26719;BME280;14326;50.794;6.060;2023-05-20T08:58:42;100031.72;;;17.94;62.08
26719;BME280;14326;50.794;6.060;2023-05-20T09:01:12;100035.06;;;18.10;61.87
26719;BME280;14326;50.794;6.060;2023-05-20T09:03:39;100035.50;;;18.40;59.38
26719;BME280;14326;50.794;6.060;2023-05-20T09:06:21;100037.41;;;17.73;61.70
26719;BME280;14326;50.794;6.060;2023-05-20T09:08:59;100033.13;;;17.53;62.22
26719;BME280;14326;50.794;6.060;2023-05-20T09:11:26;100031.47;;;17.42;63.51
26719;BME280;14326;50.794;6.060;2023-05-20T09:13:52;100036.94;;;17.34;63.16
26719;BME280;14326;50.794;6.060;2023-05-20T09:16:54;100031.16;;;17.68;63.74
26719;BME280;14326;50.794;6.060;2023-05-20T09:19:29;100032.38;;;18.10;63.19
26719;BME280;14326;50.794;6.060;2023-05-20T09:21:58;100026.00;;;18.17;61.28
26719;BME280;14326;50.794;6.060;2023-05-20T09:24:25;100025.63;;;18.41;60.85
26719;BME280;14326;50.794;6.060;2023-05-20T09:29:48;100015.13;;;18.23;60.78
26719;BME280;14326;50.794;6.060;2023-05-20T09:32:19;100012.34;;;18.29;62.27
26719;BME280;14326;50.794;6.060;2023-05-20T09:35:14;100015.56;;;18.51;61.21
26719;BME280;14326;50.794;6.060;2023-05-20T09:38:13;99994.00;;;18.55;59.12
26719;BME280;14326;50.794;6.060;2023-05-20T09:40:51;100013.03;;;18.95;59.80
26719;BME280;14326;50.794;6.060;2023-05-20T09:43:32;100013.28;;;18.80;59.62
26719;BME280;14326;50.794;6.060;2023-05-20T09:46:11;100005.75;;;19.00;58.63
26719;BME280;14326;50.794;6.060;2023-05-20T09:48:39;100004.53;;;19.15;57.34
26719;BME280;14326;50.794;6.060;2023-05-20T09:51:37;100011.03;;;19.06;60.40
26719;BME280;14326;50.794;6.060;2023-05-20T09:54:25;99999.09;;;19.18;59.12
26719;BME280;14326;50.794;6.060;2023-05-20T09:57:17;100005.06;;;18.89;56.97
26719;BME280;14326;50.794;6.060;2023-05-20T10:00:04;99996.97;;;18.89;57.63
26719;BME280;14326;50.794;6.060;2023-05-20T10:03:09;100006.41;;;19.13;58.16
26719;BME280;14326;50.794;6.060;2023-05-20T10:05:50;100005.25;;;19.26;57.97
26719;BME280;14326;50.794;6.060;2023-05-20T10:08:38;100012.72;;;19.12;57.97
26719;BME280;14326;50.794;6.060;2023-05-20T10:11:15;100017.53;;;18.95;62.25
26719;BME280;14326;50.794;6.060;2023-05-20T10:13:54;100002.56;;;19.26;57.54
26719;BME280;14326;50.794;6.060;2023-05-20T10:16:40;99993.13;;;19.48;57.89
26719;BME280;14326;50.794;6.060;2023-05-20T10:19:26;99990.34;;;19.51;57.38
26719;BME280;14326;50.794;6.060;2023-05-20T10:21:59;99998.22;;;19.62;56.27
26719;BME280;14326;50.794;6.060;2023-05-20T10:24:30;99990.22;;;19.57;57.41
26719;BME280;14326;50.794;6.060;2023-05-20T10:26:58;99990.19;;;19.99;56.04
26719;BME280;14326;50.794;6.060;2023-05-20T10:29:25;99994.00;;;19.90;55.25
26719;BME280;14326;50.794;6.060;2023-05-20T10:31:52;100000.13;;;19.57;57.29
26719;BME280;14326;50.794;6.060;2023-05-20T10:35:02;99986.41;;;19.23;57.86
26719;BME280;14326;50.794;6.060;2023-05-20T10:37:45;100006.19;;;18.77;59.87
26719;BME280;14326;50.794;6.060;2023-05-20T10:40:20;100000.13;;;18.63;60.04
26719;BME280;14326;50.794;6.060;2023-05-20T10:42:50;100001.28;;;18.98;60.76
26719;BME280;14326;50.794;6.060;2023-05-20T10:45:35;99986.03;;;19.41;59.35
26719;BME280;14326;50.794;6.060;2023-05-20T10:48:28;99992.78;;;19.63;57.85
26719;BME280;14326;50.794;6.060;2023-05-20T10:50:59;99986.91;;;19.43;59.07
26719;BME280;14326;50.794;6.060;2023-05-20T10:53:46;99984.56;;;19.70;60.18
26719;BME280;14326;50.794;6.060;2023-05-20T10:56:26;99985.84;;;19.92;58.24
26719;BME280;14326;50.794;6.060;2023-05-20T10:58:53;99982.97;;;20.01;57.54
26719;BME280;14326;50.794;6.060;2023-05-20T11:01:25;99975.09;;;20.27;57.11
26719;BME280;14326;50.794;6.060;2023-05-20T11:03:53;99967.84;;;20.29;55.52
26719;BME280;14326;50.794;6.060;2023-05-20T11:06:25;99959.53;;;20.38;54.37
26719;BME280;14326;50.794;6.060;2023-05-20T11:09:08;99962.22;;;20.40;55.10
26719;BME280;14326;50.794;6.060;2023-05-20T11:11:49;99956.91;;;20.37;58.37
26719;BME280;14326;50.794;6.060;2023-05-20T11:14:21;99960.00;;;20.20;57.46
26719;BME280;14326;50.794;6.060;2023-05-20T11:16:51;99961.34;;;20.01;57.04
26719;BME280;14326;50.794;6.060;2023-05-20T11:19:21;99960.75;;;19.88;56.13
26719;BME280;14326;50.794;6.060;2023-05-20T11:21:57;99947.22;;;19.90;55.90
26719;BME280;14326;50.794;6.060;2023-05-20T11:24:26;99952.25;;;20.05;58.16
26719;BME280;14326;50.794;6.060;2023-05-20T11:26:56;99950.75;;;19.92;58.09
26719;BME280;14326;50.794;6.060;2023-05-20T11:29:33;99951.25;;;19.71;57.40
26719;BME280;14326;50.794;6.060;2023-05-20T11:32:00;99958.13;;;19.44;58.38
26719;BME280;14326;50.794;6.060;2023-05-20T11:34:32;99944.19;;;19.20;59.10
26719;BME280;14326;50.794;6.060;2023-05-20T11:40:13;99947.25;;;19.04;62.10
26719;BME280;14326;50.794;6.060;2023-05-20T11:42:55;99941.44;;;19.23;60.03
26719;BME280;14326;50.794;6.060;2023-05-20T11:45:40;99937.94;;;19.20;60.58
26719;BME280;14326;50.794;6.060;2023-05-20T11:48:17;99928.13;;;19.14;61.40
26719;BME280;14326;50.794;6.060;2023-05-20T11:50:55;99931.06;;;19.48;61.39
26719;BME280;14326;50.794;6.060;2023-05-20T11:53:30;99923.13;;;19.81;60.91
26719;BME280;14326;50.794;6.060;2023-05-20T11:56:03;99928.47;;;19.82;58.54
26719;BME280;14326;50.794;6.060;2023-05-20T11:58:34;99913.59;;;19.65;58.61
26719;BME280;14326;50.794;6.060;2023-05-20T12:01:16;99918.09;;;19.64;59.70
26719;BME280;14326;50.794;6.060;2023-05-20T12:03:44;99924.66;;;19.52;60.09
26719;BME280;14326;50.794;6.060;2023-05-20T12:06:11;99919.19;;;19.94;60.28
26719;BME280;14326;50.794;6.060;2023-05-20T12:08:44;99918.56;;;20.20;58.63
26719;BME280;14326;50.794;6.060;2023-05-20T12:11:12;99921.94;;;20.29;57.51
26719;BME280;14326;50.794;6.060;2023-05-20T12:16:34;99919.50;;;20.19;58.24
26719;BME280;14326;50.794;6.060;2023-05-20T12:19:26;99918.31;;;20.32;57.92
26719;BME280;14326;50.794;6.060;2023-05-20T12:22:02;99911.44;;;20.16;57.49
26719;BME280;14326;50.794;6.060;2023-05-20T12:24:31;99910.94;;;20.00;56.68
26719;BME280;14326;50.794;6.060;2023-05-20T12:27:00;99909.22;;;19.97;58.79
26719;BME280;14326;50.794;6.060;2023-05-20T12:29:42;99911.53;;;20.14;58.75
26719;BME280;14326;50.794;6.060;2023-05-20T12:32:13;99907.09;;;20.10;57.82
26719;BME280;14326;50.794;6.060;2023-05-20T12:35:23;99913.25;;;20.52;56.08
26719;BME280;14326;50.794;6.060;2023-05-20T12:37:53;99902.88;;;20.69;57.13
26719;BME280;14326;50.794;6.060;2023-05-20T12:40:19;99896.66;;;20.66;57.01
26719;BME280;14326;50.794;6.060;2023-05-20T12:46:09;99899.94;;;20.44;57.04
26719;BME280;14326;50.794;6.060;2023-05-20T12:48:36;99900.47;;;20.59;56.53
26719;BME280;14326;50.794;6.060;2023-05-20T12:51:03;99904.56;;;20.39;57.12
26719;BME280;14326;50.794;6.060;2023-05-20T12:53:30;99916.41;;;20.35;60.19
26719;BME280;14326;50.794;6.060;2023-05-20T12:55:56;99912.91;;;20.64;57.94
26719;BME280;14326;50.794;6.060;2023-05-20T12:58:23;99903.34;;;20.16;58.77
26719;BME280;14326;50.794;6.060;2023-05-20T13:00:57;99909.63;;;20.18;57.66
26719;BME280;14326;50.794;6.060;2023-05-20T13:03:39;99915.75;;;20.24;57.85
26719;BME280;14326;50.794;6.060;2023-05-20T13:06:06;99895.97;;;20.58;58.51
26719;BME280;14326;50.794;6.060;2023-05-20T13:11:24;99902.38;;;20.20;61.01
26719;BME280;14326;50.794;6.060;2023-05-20T13:14:13;99896.72;;;20.29;59.65
26719;BME280;14326;50.794;6.060;2023-05-20T13:16:48;99903.81;;;20.34;59.03
26719;BME280;14326;50.794;6.060;2023-05-20T13:19:19;99903.03;;;20.28;59.78
26719;BME280;14326;50.794;6.060;2023-05-20T13:21:57;99905.47;;;20.40;59.31
26719;BME280;14326;50.794;6.060;2023-05-20T13:24:59;99896.81;;;20.61;57.67
26719;BME280;14326;50.794;6.060;2023-05-20T13:27:46;99905.84;;;20.25;58.43
26719;BME280;14326;50.794;6.060;2023-05-20T13:30:38;99893.75;;;20.04;59.45
26719;BME280;14326;50.794;6.060;2023-05-20T13:33:25;99888.63;;;19.92;59.51
26719;BME280;14326;50.794;6.060;2023-05-20T13:35:53;99888.25;;;19.72;60.98
26719;BME280;14326;50.794;6.060;2023-05-20T13:38:20;99894.56;;;19.71;60.47
26719;BME280;14326;50.794;6.060;2023-05-20T13:40:46;99886.31;;;19.77;60.66
26719;BME280;14326;50.794;6.060;2023-05-20T13:43:16;99888.59;;;19.95;59.84
26719;BME280;14326;50.794;6.060;2023-05-20T13:45:43;99888.47;;;19.99;60.06
26719;BME280;14326;50.794;6.060;2023-05-20T13:48:09;99886.31;;;19.77;61.21
26719;BME280;14326;50.794;6.060;2023-05-20T13:50:36;99880.63;;;19.50;61.52
26719;BME280;14326;50.794;6.060;2023-05-20T13:53:07;99875.84;;;19.63;62.29
26719;BME280;14326;50.794;6.060;2023-05-20T13:55:36;99885.88;;;19.56;61.58
26719;BME280;14326;50.794;6.060;2023-05-20T13:58:03;99880.56;;;19.55;62.29
26719;BME280;14326;50.794;6.060;2023-05-20T14:00:34;99878.13;;;19.41;62.83
26719;BME280;14326;50.794;6.060;2023-05-20T14:03:05;99869.94;;;19.46;61.99
26719;BME280;14326;50.794;6.060;2023-05-20T14:09:10;99860.88;;;19.87;62.15
26719;BME280;14326;50.794;6.060;2023-05-20T14:12:19;99863.34;;;19.96;61.27
26719;BME280;14326;50.794;6.060;2023-05-20T14:14:47;99862.06;;;19.75;62.89
26719;BME280;14326;50.794;6.060;2023-05-20T14:17:23;99863.22;;;20.00;60.77
26719;BME280;14326;50.794;6.060;2023-05-20T14:20:05;99859.06;;;20.23;59.88
26719;BME280;14326;50.794;6.060;2023-05-20T14:22:32;99855.66;;;20.15;60.25
26719;BME280;14326;50.794;6.060;2023-05-20T14:25:21;99859.38;;;19.74;60.89
26719;BME280;14326;50.794;6.060;2023-05-20T14:28:04;99852.69;;;19.53;64.09
26719;BME280;14326;50.794;6.060;2023-05-20T14:30:55;99843.66;;;19.55;63.03
26719;BME280;14326;50.794;6.060;2023-05-20T14:33:26;99840.44;;;19.77;65.24
26719;BME280;14326;50.794;6.060;2023-05-20T14:36:09;99850.50;;;19.69;63.49
26719;BME280;14326;50.794;6.060;2023-05-20T14:38:44;99842.47;;;19.67;64.35
26719;BME280;14326;50.794;6.060;2023-05-20T14:41:14;99847.31;;;19.53;63.37